sensor_id;sensor_type;location;lat;lon;timestamp;temperature;humidity
45339;DHT22;31071;51.478;5.710;2023-06-19T00:01:09;21.80;86.20
45339;DHT22;31071;51.478;5.710;2023-06-19T00:03:38;24.90;88.50
45339;DHT22;31071;51.478;5.710;2023-06-19T00:09:25;22.80;85.90
45339;DHT22;31071;51.478;5.710;2023-06-19T00:11:51;22.70;86.90
45339;DHT22;31071;51.478;5.710;2023-06-19T00:14:37;24.60;88.40
45339;DHT22;31071;51.478;5.710;2023-06-19T00:17:02;24.50;87.70
45339;DHT22;31071;51.478;5.710;2023-06-19T00:19:28;22.70;87.30
45339;DHT22;31071;51.478;5.710;2023-06-19T00:21:53;24.50;88.10
45339;DHT22;31071;51.478;5.710;2023-06-19T00:24:23;25.10;88.90
45339;DHT22;31071;51.478;5.710;2023-06-19T00:26:48;23.70;87.50
45339;DHT22;31071;51.478;5.710;2023-06-19T00:29:16;23.90;88.10
45339;DHT22;31071;51.478;5.710;2023-06-19T00:31:52;22.60;87.20
45339;DHT22;31071;51.478;5.710;2023-06-19T00:34:17;23.20;88.10
45339;DHT22;31071;51.478;5.710;2023-06-19T00:36:43;22.50;87.30
45339;DHT22;31071;51.478;5.710;2023-06-19T00:39:09;24.60;90.00
45339;DHT22;31071;51.478;5.710;2023-06-19T00:41:37;22.40;87.90
45339;DHT22;31071;51.478;5.710;2023-06-19T00:44:03;23.40;88.40
45339;DHT22;31071;51.478;5.710;2023-06-19T00:46:45;22.30;87.80
45339;DHT22;31071;51.478;5.710;2023-06-19T00:49:11;22.30;88.30
45339;DHT22;31071;51.478;5.710;2023-06-19T00:51:37;24.40;89.50
45339;DHT22;31071;51.478;5.710;2023-06-19T00:54:03;23.10;88.30
45339;DHT22;31071;51.478;5.710;2023-06-19T00:56:29;22.40;87.90
45339;DHT22;31071;51.478;5.710;2023-06-19T00:59:00;23.50;90.00
45339;DHT22;31071;51.478;5.710;2023-06-19T01:01:30;23.70;88.00
45339;DHT22;31071;51.478;5.710;2023-06-19T01:03:58;22.70;89.00
45339;DHT22;31071;51.478;5.710;2023-06-19T01:06:32;24.30;89.60
45339;DHT22;31071;51.478;5.710;2023-06-19T01:09:09;21.90;87.80
45339;DHT22;31071;51.478;5.710;2023-06-19T01:11:43;23.90;89.50
45339;DHT22;31071;51.478;5.710;2023-06-19T01:14:25;23.70;89.40
45339;DHT22;31071;51.478;5.710;2023-06-19T01:16:53;21.00;88.80
45339;DHT22;31071;51.478;5.710;2023-06-19T01:19:20;23.50;89.80
45339;DHT22;31071;51.478;5.710;2023-06-19T01:21:54;22.10;88.60
45339;DHT22;31071;51.478;5.710;2023-06-19T01:24:19;24.30;90.20
45339;DHT22;31071;51.478;5.710;2023-06-19T01:26:48;21.70;88.50
45339;DHT22;31071;51.478;5.710;2023-06-19T01:29:14;21.80;90.10
45339;DHT22;31071;51.478;5.710;2023-06-19T01:32:04;21.00;88.80
45339;DHT22;31071;51.478;5.710;2023-06-19T01:34:30;21.50;89.50
45339;DHT22;31071;51.478;5.710;2023-06-19T01:37:02;22.90;90.30
45339;DHT22;31071;51.478;5.710;2023-06-19T01:39:31;21.20;90.10
45339;DHT22;31071;51.478;5.710;2023-06-19T01:42:05;23.00;91.10
45339;DHT22;31071;51.478;5.710;2023-06-19T01:44:31;21.30;91.10
45339;DHT22;31071;51.478;5.710;2023-06-19T01:46:59;21.30;92.40
45339;DHT22;31071;51.478;5.710;2023-06-19T01:49:27;20.00;93.00
45339;DHT22;31071;51.478;5.710;2023-06-19T01:51:53;19.40;93.20
45339;DHT22;31071;51.478;5.710;2023-06-19T01:54:26;23.30;95.30
45339;DHT22;31071;51.478;5.710;2023-06-19T01:56:53;20.80;95.30
45339;DHT22;31071;51.478;5.710;2023-06-19T01:59:19;21.40;95.10
45339;DHT22;31071;51.478;5.710;2023-06-19T02:01:55;20.70;95.70
45339;DHT22;31071;51.478;5.710;2023-06-19T02:04:23;21.90;96.20
45339;DHT22;31071;51.478;5.710;2023-06-19T02:06:49;21.40;96.50
45339;DHT22;31071;51.478;5.710;2023-06-19T02:09:14;20.90;96.70
45339;DHT22;31071;51.478;5.710;2023-06-19T02:11:41;20.40;97.30
45339;DHT22;31071;51.478;5.710;2023-06-19T02:14:06;23.00;97.90
45339;DHT22;31071;51.478;5.710;2023-06-19T02:16:32;22.60;98.10
45339;DHT22;31071;51.478;5.710;2023-06-19T02:18:58;19.70;97.90
45339;DHT22;31071;51.478;5.710;2023-06-19T02:21:23;22.90;98.60
45339;DHT22;31071;51.478;5.710;2023-06-19T02:23:49;20.20;98.00
45339;DHT22;31071;51.478;5.710;2023-06-19T02:26:15;19.70;98.90
45339;DHT22;31071;51.478;5.710;2023-06-19T02:28:41;22.10;99.60
45339;DHT22;31071;51.478;5.710;2023-06-19T02:31:18;17.40;99.50
45339;DHT22;31071;51.478;5.710;2023-06-19T02:33:44;20.20;99.70
45339;DHT22;31071;51.478;5.710;2023-06-19T02:36:12;20.00;99.90
45339;DHT22;31071;51.478;5.710;2023-06-19T02:38:38;20.10;99.90
45339;DHT22;31071;51.478;5.710;2023-06-19T02:41:13;20.10;99.90
45339;DHT22;31071;51.478;5.710;2023-06-19T02:43:40;20.00;99.90
45339;DHT22;31071;51.478;5.710;2023-06-19T02:46:12;20.00;99.90
45339;DHT22;31071;51.478;5.710;2023-06-19T02:48:38;21.60;99.90
45339;DHT22;31071;51.478;5.710;2023-06-19T02:51:04;20.70;99.90
45339;DHT22;31071;51.478;5.710;2023-06-19T02:53:29;20.00;99.90
45339;DHT22;31071;51.478;5.710;2023-06-19T02:55:55;22.40;99.90
45339;DHT22;31071;51.478;5.710;2023-06-19T02:58:20;22.40;99.90
45339;DHT22;31071;51.478;5.710;2023-06-19T03:00:46;22.00;99.90
45339;DHT22;31071;51.478;5.710;2023-06-19T03:03:12;21.60;99.90
45339;DHT22;31071;51.478;5.710;2023-06-19T03:05:38;22.40;99.90
45339;DHT22;31071;51.478;5.710;2023-06-19T03:08:04;22.30;99.90
45339;DHT22;31071;51.478;5.710;2023-06-19T03:10:30;21.60;99.90
45339;DHT22;31071;51.478;5.710;2023-06-19T03:12:56;19.60;99.90
45339;DHT22;31071;51.478;5.710;2023-06-19T03:15:24;20.40;99.90
45339;DHT22;31071;51.478;5.710;2023-06-19T03:17:49;19.30;99.90
45339;DHT22;31071;51.478;5.710;2023-06-19T03:20:15;21.80;99.90
45339;DHT22;31071;51.478;5.710;2023-06-19T03:22:41;18.50;99.90
45339;DHT22;31071;51.478;5.710;2023-06-19T03:25:07;19.10;99.90
45339;DHT22;31071;51.478;5.710;2023-06-19T03:27:34;19.30;99.90
45339;DHT22;31071;51.478;5.710;2023-06-19T03:30:04;20.70;99.90
45339;DHT22;31071;51.478;5.710;2023-06-19T03:32:33;17.30;99.90
45339;DHT22;31071;51.478;5.710;2023-06-19T03:35:00;19.20;99.90
45339;DHT22;31071;51.478;5.710;2023-06-19T03:37:26;20.30;99.90
45339;DHT22;31071;51.478;5.710;2023-06-19T03:39:54;19.20;99.90
45339;DHT22;31071;51.478;5.710;2023-06-19T03:42:20;19.20;99.90
45339;DHT22;31071;51.478;5.710;2023-06-19T03:44:47;19.20;99.90
45339;DHT22;31071;51.478;5.710;2023-06-19T03:47:13;19.20;99.90
45339;DHT22;31071;51.478;5.710;2023-06-19T03:49:42;21.30;99.90
45339;DHT22;31071;51.478;5.710;2023-06-19T03:52:08;19.30;99.90
45339;DHT22;31071;51.478;5.710;2023-06-19T03:54:33;19.10;99.90
45339;DHT22;31071;51.478;5.710;2023-06-19T03:56:59;20.80;99.90
45339;DHT22;31071;51.478;5.710;2023-06-19T03:59:26;19.30;99.90
45339;DHT22;31071;51.478;5.710;2023-06-19T04:01:51;19.10;99.90
45339;DHT22;31071;51.478;5.710;2023-06-19T04:04:17;19.50;99.90
45339;DHT22;31071;51.478;5.710;2023-06-19T04:06:42;19.20;99.90
45339;DHT22;31071;51.478;5.710;2023-06-19T04:09:11;21.70;99.90
45339;DHT22;31071;51.478;5.710;2023-06-19T04:11:38;19.00;99.90
45339;DHT22;31071;51.478;5.710;2023-06-19T04:14:03;18.90;99.90
45339;DHT22;31071;51.478;5.710;2023-06-19T04:16:29;21.40;99.90
45339;DHT22;31071;51.478;5.710;2023-06-19T04:18:55;19.10;99.90
45339;DHT22;31071;51.478;5.710;2023-06-19T04:21:23;19.80;99.90
45339;DHT22;31071;51.478;5.710;2023-06-19T04:23:53;19.10;99.90
45339;DHT22;31071;51.478;5.710;2023-06-19T04:26:18;18.20;99.90
45339;DHT22;31071;51.478;5.710;2023-06-19T04:28:46;20.10;99.90
45339;DHT22;31071;51.478;5.710;2023-06-19T04:31:12;20.00;99.90
45339;DHT22;31071;51.478;5.710;2023-06-19T04:33:44;19.40;99.90
45339;DHT22;31071;51.478;5.710;2023-06-19T04:36:10;20.10;99.90
45339;DHT22;31071;51.478;5.710;2023-06-19T04:38:36;17.90;99.90
45339;DHT22;31071;51.478;5.710;2023-06-19T04:41:01;22.00;99.90
45339;DHT22;31071;51.478;5.710;2023-06-19T04:43:27;21.20;99.90
45339;DHT22;31071;51.478;5.710;2023-06-19T04:45:53;21.40;99.90
45339;DHT22;31071;51.478;5.710;2023-06-19T04:48:18;20.50;99.90
45339;DHT22;31071;51.478;5.710;2023-06-19T04:50:44;19.40;99.90
45339;DHT22;31071;51.478;5.710;2023-06-19T04:53:10;19.50;99.90
45339;DHT22;31071;51.478;5.710;2023-06-19T04:55:35;19.40;99.90
45339;DHT22;31071;51.478;5.710;2023-06-19T04:58:02;21.00;99.90
45339;DHT22;31071;51.478;5.710;2023-06-19T05:00:37;21.60;99.90
45339;DHT22;31071;51.478;5.710;2023-06-19T05:03:06;21.00;99.90
45339;DHT22;31071;51.478;5.710;2023-06-19T05:05:35;21.20;99.90
45339;DHT22;31071;51.478;5.710;2023-06-19T05:08:04;21.50;99.90
45339;DHT22;31071;51.478;5.710;2023-06-19T05:16:24;19.90;99.90
45339;DHT22;31071;51.478;5.710;2023-06-19T05:18:52;19.70;99.90
45339;DHT22;31071;51.478;5.710;2023-06-19T05:21:18;19.10;99.90
45339;DHT22;31071;51.478;5.710;2023-06-19T05:23:44;20.50;99.90
45339;DHT22;31071;51.478;5.710;2023-06-19T05:26:09;19.90;99.90
45339;DHT22;31071;51.478;5.710;2023-06-19T05:28:37;20.50;99.90
45339;DHT22;31071;51.478;5.710;2023-06-19T05:31:02;20.90;99.90
45339;DHT22;31071;51.478;5.710;2023-06-19T05:33:30;21.00;99.90
45339;DHT22;31071;51.478;5.710;2023-06-19T05:35:58;21.30;99.90
45339;DHT22;31071;51.478;5.710;2023-06-19T05:38:24;21.00;99.90
45339;DHT22;31071;51.478;5.710;2023-06-19T05:40:51;19.80;99.90
45339;DHT22;31071;51.478;5.710;2023-06-19T05:43:17;20.00;99.90
45339;DHT22;31071;51.478;5.710;2023-06-19T05:45:59;22.60;99.90
45339;DHT22;31071;51.478;5.710;2023-06-19T05:48:27;21.10;99.90
45339;DHT22;31071;51.478;5.710;2023-06-19T05:50:53;22.60;99.90
45339;DHT22;31071;51.478;5.710;2023-06-19T05:53:18;22.20;99.90
45339;DHT22;31071;51.478;5.710;2023-06-19T05:55:46;22.60;99.90
45339;DHT22;31071;51.478;5.710;2023-06-19T05:58:15;22.40;99.90
45339;DHT22;31071;51.478;5.710;2023-06-19T06:00:53;20.60;99.90
45339;DHT22;31071;51.478;5.710;2023-06-19T06:03:23;20.10;99.90
45339;DHT22;31071;51.478;5.710;2023-06-19T06:05:50;22.50;99.90
45339;DHT22;31071;51.478;5.710;2023-06-19T06:08:16;22.80;99.90
45339;DHT22;31071;51.478;5.710;2023-06-19T06:28:30;20.20;99.90
45339;DHT22;31071;51.478;5.710;2023-06-19T06:31:07;19.90;99.90
45339;DHT22;31071;51.478;5.710;2023-06-19T06:45:49;20.60;99.90
45339;DHT22;31071;51.478;5.710;2023-06-19T06:48:14;20.60;99.90
45339;DHT22;31071;51.478;5.710;2023-06-19T06:50:41;20.70;99.90
45339;DHT22;31071;51.478;5.710;2023-06-19T06:53:06;22.20;99.90
45339;DHT22;31071;51.478;5.710;2023-06-19T06:55:32;21.00;99.90
45339;DHT22;31071;51.478;5.710;2023-06-19T06:57:57;21.30;99.90
45339;DHT22;31071;51.478;5.710;2023-06-19T07:00:23;21.30;99.90
45339;DHT22;31071;51.478;5.710;2023-06-19T07:02:48;21.10;99.90
45339;DHT22;31071;51.478;5.710;2023-06-19T07:05:15;21.20;99.90
45339;DHT22;31071;51.478;5.710;2023-06-19T07:07:41;21.10;99.90
45339;DHT22;31071;51.478;5.710;2023-06-19T07:10:07;21.10;99.80
45339;DHT22;31071;51.478;5.710;2023-06-19T07:12:33;21.20;99.90
45339;DHT22;31071;51.478;5.710;2023-06-19T07:14:59;21.30;99.30
45339;DHT22;31071;51.478;5.710;2023-06-19T07:17:24;22.10;99.90
45339;DHT22;31071;51.478;5.710;2023-06-19T07:19:50;21.40;99.50
45339;DHT22;31071;51.478;5.710;2023-06-19T07:22:15;21.50;99.20
45339;DHT22;31071;51.478;5.710;2023-06-19T07:24:41;22.70;99.40
45339;DHT22;31071;51.478;5.710;2023-06-19T07:27:07;23.20;99.50
45339;DHT22;31071;51.478;5.710;2023-06-19T07:29:32;21.60;98.80
45339;DHT22;31071;51.478;5.710;2023-06-19T07:31:58;21.50;98.80
45339;DHT22;31071;51.478;5.710;2023-06-19T07:34:24;22.90;99.50
45339;DHT22;31071;51.478;5.710;2023-06-19T07:36:49;21.70;98.80
45339;DHT22;31071;51.478;5.710;2023-06-19T07:39:15;22.20;97.00
45339;DHT22;31071;51.478;5.710;2023-06-19T07:41:41;22.20;96.00
45339;DHT22;31071;51.478;5.710;2023-06-19T07:44:07;22.10;96.10
45339;DHT22;31071;51.478;5.710;2023-06-19T07:46:32;21.90;96.10
45339;DHT22;31071;51.478;5.710;2023-06-19T07:48:58;21.80;96.00
45339;DHT22;31071;51.478;5.710;2023-06-19T07:51:24;22.10;96.20
45339;DHT22;31071;51.478;5.710;2023-06-19T07:53:49;22.10;95.60
45339;DHT22;31071;51.478;5.710;2023-06-19T07:56:15;22.00;95.70
45339;DHT22;31071;51.478;5.710;2023-06-19T07:58:40;22.50;95.80
45339;DHT22;31071;51.478;5.710;2023-06-19T08:01:06;22.10;95.20
45339;DHT22;31071;51.478;5.710;2023-06-19T08:03:32;22.50;94.80
45339;DHT22;31071;51.478;5.710;2023-06-19T08:05:57;22.40;94.50
45339;DHT22;31071;51.478;5.710;2023-06-19T08:08:23;22.80;94.50
45339;DHT22;31071;51.478;5.710;2023-06-19T08:10:48;23.10;93.00
45339;DHT22;31071;51.478;5.710;2023-06-19T08:13:14;25.60;93.90
45339;DHT22;31071;51.478;5.710;2023-06-19T08:15:39;24.40;93.10
45339;DHT22;31071;51.478;5.710;2023-06-19T08:18:05;23.80;92.40
45339;DHT22;31071;51.478;5.710;2023-06-19T08:20:31;25.30;91.50
45339;DHT22;31071;51.478;5.710;2023-06-19T08:22:56;25.40;91.60
45339;DHT22;31071;51.478;5.710;2023-06-19T08:25:22;25.70;91.70
45339;DHT22;31071;51.478;5.710;2023-06-19T08:27:48;22.30;91.40
45339;DHT22;31071;51.478;5.710;2023-06-19T08:30:13;23.40;91.30
45339;DHT22;31071;51.478;5.710;2023-06-19T08:32:39;24.40;91.50
45339;DHT22;31071;51.478;5.710;2023-06-19T08:35:05;25.80;90.90
45339;DHT22;31071;51.478;5.710;2023-06-19T08:37:30;24.00;90.00
45339;DHT22;31071;51.478;5.710;2023-06-19T08:39:56;26.50;90.30
45339;DHT22;31071;51.478;5.710;2023-06-19T08:42:22;24.80;89.90
45339;DHT22;31071;51.478;5.710;2023-06-19T08:44:48;24.20;89.30
45339;DHT22;31071;51.478;5.710;2023-06-19T08:47:14;24.00;89.50
45339;DHT22;31071;51.478;5.710;2023-06-19T08:49:40;24.00;89.90
45339;DHT22;31071;51.478;5.710;2023-06-19T08:55:51;23.60;90.70
45339;DHT22;31071;51.478;5.710;2023-06-19T08:58:23;22.40;90.80
45339;DHT22;31071;51.478;5.710;2023-06-19T09:00:49;25.50;91.40
45339;DHT22;31071;51.478;5.710;2023-06-19T09:03:33;26.00;90.40
45339;DHT22;31071;51.478;5.710;2023-06-19T09:06:34;24.30;88.50
45339;DHT22;31071;51.478;5.710;2023-06-19T09:12:21;24.60;86.40
45339;DHT22;31071;51.478;5.710;2023-06-19T09:17:22;24.50;86.90
45339;DHT22;31071;51.478;5.710;2023-06-19T09:19:52;27.10;88.00
45339;DHT22;31071;51.478;5.710;2023-06-19T09:22:21;22.10;84.70
45339;DHT22;31071;51.478;5.710;2023-06-19T09:28:31;24.20;88.20
45339;DHT22;31071;51.478;5.710;2023-06-19T09:34:55;24.40;86.90
45339;DHT22;31071;51.478;5.710;2023-06-19T09:37:31;24.10;85.20
45339;DHT22;31071;51.478;5.710;2023-06-19T09:40:19;25.20;84.10
45339;DHT22;31071;51.478;5.710;2023-06-19T09:42:45;24.60;83.00
45339;DHT22;31071;51.478;5.710;2023-06-19T09:45:31;25.10;82.80
45339;DHT22;31071;51.478;5.710;2023-06-19T09:48:13;25.30;81.10
45339;DHT22;31071;51.478;5.710;2023-06-19T09:54:25;25.50;80.80
45339;DHT22;31071;51.478;5.710;2023-06-19T09:57:32;25.10;78.10
45339;DHT22;31071;51.478;5.710;2023-06-19T10:00:10;26.90;78.20
45339;DHT22;31071;51.478;5.710;2023-06-19T10:06:04;25.40;78.60
45339;DHT22;31071;51.478;5.710;2023-06-19T10:08:41;24.80;77.00
45339;DHT22;31071;51.478;5.710;2023-06-19T10:11:13;25.50;77.80
45339;DHT22;31071;51.478;5.710;2023-06-19T10:13:41;27.30;77.10
45339;DHT22;31071;51.478;5.710;2023-06-19T10:16:08;28.20;76.10
45339;DHT22;31071;51.478;5.710;2023-06-19T10:18:45;27.50;75.60
45339;DHT22;31071;51.478;5.710;2023-06-19T10:21:21;27.20;77.50
45339;DHT22;31071;51.478;5.710;2023-06-19T10:23:57;26.10;78.00
45339;DHT22;31071;51.478;5.710;2023-06-19T10:26:31;25.30;78.70
45339;DHT22;31071;51.478;5.710;2023-06-19T10:28:57;25.70;76.40
45339;DHT22;31071;51.478;5.710;2023-06-19T10:31:22;25.90;75.80
45339;DHT22;31071;51.478;5.710;2023-06-19T10:33:48;26.20;74.40
45339;DHT22;31071;51.478;5.710;2023-06-19T10:36:22;26.40;73.60
45339;DHT22;31071;51.478;5.710;2023-06-19T10:38:52;26.10;73.10
45339;DHT22;31071;51.478;5.710;2023-06-19T10:41:24;25.10;75.50
45339;DHT22;31071;51.478;5.710;2023-06-19T10:44:01;25.40;75.90
45339;DHT22;31071;51.478;5.710;2023-06-19T10:46:31;25.70;73.70
45339;DHT22;31071;51.478;5.710;2023-06-19T10:48:58;25.70;74.00
45339;DHT22;31071;51.478;5.710;2023-06-19T10:51:27;25.80;73.50
45339;DHT22;31071;51.478;5.710;2023-06-19T10:53:54;25.90;74.10
45339;DHT22;31071;51.478;5.710;2023-06-19T10:56:21;26.50;71.60
45339;DHT22;31071;51.478;5.710;2023-06-19T10:58:47;27.10;69.30
45339;DHT22;31071;51.478;5.710;2023-06-19T11:01:13;27.50;69.60
45339;DHT22;31071;51.478;5.710;2023-06-19T11:03:38;27.70;68.00
45339;DHT22;31071;51.478;5.710;2023-06-19T11:06:04;27.80;67.20
45339;DHT22;31071;51.478;5.710;2023-06-19T11:08:30;27.70;66.20
45339;DHT22;31071;51.478;5.710;2023-06-19T11:10:56;28.20;66.50
45339;DHT22;31071;51.478;5.710;2023-06-19T11:13:22;28.30;66.40
45339;DHT22;31071;51.478;5.710;2023-06-19T11:15:48;28.50;65.20
45339;DHT22;31071;51.478;5.710;2023-06-19T11:18:19;29.00;64.50
45339;DHT22;31071;51.478;5.710;2023-06-19T11:24:11;27.90;63.70
45339;DHT22;31071;51.478;5.710;2023-06-19T11:26:56;27.60;61.80
45339;DHT22;31071;51.478;5.710;2023-06-19T11:29:26;29.50;65.20
45339;DHT22;31071;51.478;5.710;2023-06-19T11:32:16;27.70;62.10
45339;DHT22;31071;51.478;5.710;2023-06-19T11:35:07;28.80;60.30
45339;DHT22;31071;51.478;5.710;2023-06-19T11:41:05;28.10;62.00
45339;DHT22;31071;51.478;5.710;2023-06-19T11:43:42;29.20;62.10
45339;DHT22;31071;51.478;5.710;2023-06-19T11:46:10;28.80;60.20
45339;DHT22;31071;51.478;5.710;2023-06-19T11:48:39;30.50;62.80
45339;DHT22;31071;51.478;5.710;2023-06-19T11:51:16;30.30;63.40
45339;DHT22;31071;51.478;5.710;2023-06-19T11:53:54;28.40;61.50
45339;DHT22;31071;51.478;5.710;2023-06-19T11:56:55;29.00;58.90
45339;DHT22;31071;51.478;5.710;2023-06-19T12:06:05;30.20;55.50
45339;DHT22;31071;51.478;5.710;2023-06-19T12:08:51;31.10;55.00
45339;DHT22;31071;51.478;5.710;2023-06-19T12:14:35;30.80;52.20
45339;DHT22;31071;51.478;5.710;2023-06-19T12:17:35;32.70;52.80
45339;DHT22;31071;51.478;5.710;2023-06-19T12:20:10;33.50;52.00
45339;DHT22;31071;51.478;5.710;2023-06-19T12:23:15;32.60;50.10
45339;DHT22;31071;51.478;5.710;2023-06-19T12:25:43;32.90;50.60
45339;DHT22;31071;51.478;5.710;2023-06-19T12:28:55;32.90;50.70
45339;DHT22;31071;51.478;5.710;2023-06-19T12:31:26;34.70;51.70
45339;DHT22;31071;51.478;5.710;2023-06-19T12:37:36;31.50;48.70
45339;DHT22;31071;51.478;5.710;2023-06-19T12:43:11;31.80;49.60
45339;DHT22;31071;51.478;5.710;2023-06-19T12:45:59;32.10;49.70
45339;DHT22;31071;51.478;5.710;2023-06-19T12:48:29;32.80;48.60
45339;DHT22;31071;51.478;5.710;2023-06-19T12:50:55;32.40;47.90
45339;DHT22;31071;51.478;5.710;2023-06-19T12:53:23;32.60;47.40
45339;DHT22;31071;51.478;5.710;2023-06-19T12:59:08;33.00;46.10
45339;DHT22;31071;51.478;5.710;2023-06-19T13:01:40;33.00;47.00
45339;DHT22;31071;51.478;5.710;2023-06-19T13:04:05;34.40;47.40
45339;DHT22;31071;51.478;5.710;2023-06-19T13:06:37;32.90;47.60
45339;DHT22;31071;51.478;5.710;2023-06-19T13:09:03;32.90;46.50
45339;DHT22;31071;51.478;5.710;2023-06-19T13:11:57;34.80;47.90
45339;DHT22;31071;51.478;5.710;2023-06-19T13:14:45;32.70;45.60
45339;DHT22;31071;51.478;5.710;2023-06-19T13:17:10;34.00;43.40
45339;DHT22;31071;51.478;5.710;2023-06-19T13:20:04;35.00;44.00
45339;DHT22;31071;51.478;5.710;2023-06-19T13:25:38;33.40;42.90
45339;DHT22;31071;51.478;5.710;2023-06-19T13:28:04;33.80;41.60
45339;DHT22;31071;51.478;5.710;2023-06-19T13:30:30;33.60;42.10
45339;DHT22;31071;51.478;5.710;2023-06-19T13:35:27;33.20;41.60
45339;DHT22;31071;51.478;5.710;2023-06-19T13:37:59;31.80;43.70
45339;DHT22;31071;51.478;5.710;2023-06-19T13:40:47;33.00;46.50
45339;DHT22;31071;51.478;5.710;2023-06-19T13:52:50;33.60;43.70
45339;DHT22;31071;51.478;5.710;2023-06-19T13:58:28;34.30;43.20
45339;DHT22;31071;51.478;5.710;2023-06-19T14:01:03;32.00;41.30
45339;DHT22;31071;51.478;5.710;2023-06-19T14:06:23;32.80;43.50
45339;DHT22;31071;51.478;5.710;2023-06-19T14:08:48;32.50;42.90
45339;DHT22;31071;51.478;5.710;2023-06-19T14:11:14;32.70;43.70
45339;DHT22;31071;51.478;5.710;2023-06-19T14:13:39;32.90;43.20
45339;DHT22;31071;51.478;5.710;2023-06-19T14:16:08;33.20;44.00
45339;DHT22;31071;51.478;5.710;2023-06-19T14:18:33;33.90;46.40
45339;DHT22;31071;51.478;5.710;2023-06-19T14:21:19;32.50;46.00
45339;DHT22;31071;51.478;5.710;2023-06-19T14:27:13;30.50;47.40
45339;DHT22;31071;51.478;5.710;2023-06-19T14:29:41;28.80;45.90
45339;DHT22;31071;51.478;5.710;2023-06-19T14:32:07;30.80;47.20
45339;DHT22;31071;51.478;5.710;2023-06-19T14:34:53;32.60;46.20
45339;DHT22;31071;51.478;5.710;2023-06-19T14:37:19;31.20;46.00
45339;DHT22;31071;51.478;5.710;2023-06-19T14:39:46;30.60;47.00
45339;DHT22;31071;51.478;5.710;2023-06-19T14:42:19;31.80;46.10
45339;DHT22;31071;51.478;5.710;2023-06-19T14:44:45;30.50;46.80
45339;DHT22;31071;51.478;5.710;2023-06-19T14:47:46;33.00;47.80
45339;DHT22;31071;51.478;5.710;2023-06-19T14:51:04;30.20;45.40
45339;DHT22;31071;51.478;5.710;2023-06-19T14:53:37;30.60;46.20
45339;DHT22;31071;51.478;5.710;2023-06-19T15:03:24;28.60;46.70
45339;DHT22;31071;51.478;5.710;2023-06-19T15:05:59;29.00;46.80
45339;DHT22;31071;51.478;5.710;2023-06-19T15:08:43;29.80;45.50
45339;DHT22;31071;51.478;5.710;2023-06-19T15:11:40;30.30;45.80
45339;DHT22;31071;51.478;5.710;2023-06-19T15:14:06;30.50;46.30
45339;DHT22;31071;51.478;5.710;2023-06-19T15:16:50;31.90;48.50
45339;DHT22;31071;51.478;5.710;2023-06-19T15:19:23;31.50;46.30
45339;DHT22;31071;51.478;5.710;2023-06-19T15:44:55;29.90;47.00
45339;DHT22;31071;51.478;5.710;2023-06-19T15:47:21;30.10;47.00
45339;DHT22;31071;51.478;5.710;2023-06-19T15:49:47;29.90;47.10
45339;DHT22;31071;51.478;5.710;2023-06-19T15:52:12;30.20;47.00
45339;DHT22;31071;51.478;5.710;2023-06-19T15:54:38;30.00;46.90
45339;DHT22;31071;51.478;5.710;2023-06-19T15:57:05;30.40;47.20
45339;DHT22;31071;51.478;5.710;2023-06-19T16:02:44;30.10;47.20
45339;DHT22;31071;51.478;5.710;2023-06-19T16:05:20;30.20;46.20
45339;DHT22;31071;51.478;5.710;2023-06-19T16:07:53;30.40;46.50
45339;DHT22;31071;51.478;5.710;2023-06-19T16:10:28;30.30;47.00
45339;DHT22;31071;51.478;5.710;2023-06-19T16:12:53;30.30;46.40
45339;DHT22;31071;51.478;5.710;2023-06-19T16:15:19;31.80;47.50
45339;DHT22;31071;51.478;5.710;2023-06-19T16:17:50;31.90;48.00
45339;DHT22;31071;51.478;5.710;2023-06-19T16:20:18;29.90;46.90
45339;DHT22;31071;51.478;5.710;2023-06-19T16:22:52;30.70;48.00
45339;DHT22;31071;51.478;5.710;2023-06-19T16:25:18;29.90;47.40
45339;DHT22;31071;51.478;5.710;2023-06-19T16:27:44;29.70;47.30
45339;DHT22;31071;51.478;5.710;2023-06-19T16:30:19;29.80;47.80
45339;DHT22;31071;51.478;5.710;2023-06-19T16:32:48;29.80;48.00
45339;DHT22;31071;51.478;5.710;2023-06-19T16:35:14;28.40;47.50
45339;DHT22;31071;51.478;5.710;2023-06-19T16:37:47;28.70;49.20
45339;DHT22;31071;51.478;5.710;2023-06-19T16:40:13;30.70;50.70
45339;DHT22;31071;51.478;5.710;2023-06-19T16:42:39;30.00;50.60
45339;DHT22;31071;51.478;5.710;2023-06-19T16:45:05;28.50;48.90
45339;DHT22;31071;51.478;5.710;2023-06-19T16:47:31;28.60;48.70
45339;DHT22;31071;51.478;5.710;2023-06-19T16:49:56;28.80;48.80
45339;DHT22;31071;51.478;5.710;2023-06-19T16:52:22;29.00;48.30
45339;DHT22;31071;51.478;5.710;2023-06-19T16:54:48;29.40;47.90
45339;DHT22;31071;51.478;5.710;2023-06-19T16:57:14;29.50;47.70
45339;DHT22;31071;51.478;5.710;2023-06-19T16:59:39;29.50;47.50
45339;DHT22;31071;51.478;5.710;2023-06-19T17:02:05;29.00;47.90
45339;DHT22;31071;51.478;5.710;2023-06-19T17:04:31;29.00;48.70
45339;DHT22;31071;51.478;5.710;2023-06-19T17:06:56;29.30;48.00
45339;DHT22;31071;51.478;5.710;2023-06-19T17:09:22;29.20;47.80
45339;DHT22;31071;51.478;5.710;2023-06-19T17:11:47;29.10;48.30
45339;DHT22;31071;51.478;5.710;2023-06-19T17:14:13;28.80;48.80
45339;DHT22;31071;51.478;5.710;2023-06-19T17:16:38;28.60;48.50
45339;DHT22;31071;51.478;5.710;2023-06-19T17:19:04;28.40;49.60
45339;DHT22;31071;51.478;5.710;2023-06-19T17:21:31;28.50;49.70
45339;DHT22;31071;51.478;5.710;2023-06-19T17:23:57;28.60;49.60
45339;DHT22;31071;51.478;5.710;2023-06-19T17:26:22;28.50;49.30
45339;DHT22;31071;51.478;5.710;2023-06-19T17:28:48;28.40;50.00
45339;DHT22;31071;51.478;5.710;2023-06-19T17:31:13;28.40;50.10
45339;DHT22;31071;51.478;5.710;2023-06-19T17:33:39;28.30;50.20
45339;DHT22;31071;51.478;5.710;2023-06-19T17:36:05;28.30;49.80
45339;DHT22;31071;51.478;5.710;2023-06-19T17:38:30;28.60;50.40
45339;DHT22;31071;51.478;5.710;2023-06-19T17:40:56;28.90;49.60
45339;DHT22;31071;51.478;5.710;2023-06-19T17:43:21;29.00;48.70
45339;DHT22;31071;51.478;5.710;2023-06-19T17:45:47;29.00;49.50
45339;DHT22;31071;51.478;5.710;2023-06-19T17:48:12;29.10;49.50
45339;DHT22;31071;51.478;5.710;2023-06-19T17:50:38;29.10;49.70
45339;DHT22;31071;51.478;5.710;2023-06-19T17:53:04;29.10;49.40
45339;DHT22;31071;51.478;5.710;2023-06-19T17:55:30;28.90;49.40
45339;DHT22;31071;51.478;5.710;2023-06-19T17:57:56;28.80;49.30
45339;DHT22;31071;51.478;5.710;2023-06-19T18:00:21;28.50;49.60
45339;DHT22;31071;51.478;5.710;2023-06-19T18:02:47;28.20;49.70
45339;DHT22;31071;51.478;5.710;2023-06-19T18:05:13;29.20;52.20
45339;DHT22;31071;51.478;5.710;2023-06-19T18:07:38;28.20;51.30
45339;DHT22;31071;51.478;5.710;2023-06-19T18:10:04;28.20;51.70
45339;DHT22;31071;51.478;5.710;2023-06-19T18:12:30;28.10;51.90